sensor_id;sensor_type;location;lat;lon;timestamp;P1;durP1;ratioP1;P2;durP2;ratioP2
58768;SDS011;44536;47.474;19.056;2024-03-02T00:01:27;27.33;;;16.15;;
58768;SDS011;44536;47.474;19.056;2024-03-02T00:04:30;19.75;;;13.93;;
58768;SDS011;44536;47.474;19.056;2024-03-02T00:07:32;28.75;;;16.85;;
58768;SDS011;44536;47.474;19.056;2024-03-02T00:10:36;28.38;;;15.55;;
58768;SDS011;44536;47.474;19.056;2024-03-02T00:13:41;24.33;;;14.40;;
58768;SDS011;44536;47.474;19.056;2024-03-02T00:16:43;28.73;;;15.35;;
58768;SDS011;44536;47.474;19.056;2024-03-02T00:19:45;20.30;;;12.80;;
58768;SDS011;44536;47.474;19.056;2024-03-02T00:22:47;22.17;;;12.90;;
58768;SDS011;44536;47.474;19.056;2024-03-02T00:25:53;22.85;;;13.13;;
58768;SDS011;44536;47.474;19.056;2024-03-02T00:28:55;23.70;;;14.48;;
58768;SDS011;44536;47.474;19.056;2024-03-02T00:31:59;23.50;;;14.85;;
58768;SDS011;44536;47.474;19.056;2024-03-02T00:35:04;21.27;;;12.63;;
58768;SDS011;44536;47.474;19.056;2024-03-02T00:38:06;21.83;;;13.65;;
58768;SDS011;44536;47.474;19.056;2024-03-02T00:41:08;23.87;;;15.07;;
58768;SDS011;44536;47.474;19.056;2024-03-02T00:44:16;24.12;;;14.07;;
58768;SDS011;44536;47.474;19.056;2024-03-02T00:47:23;21.15;;;13.35;;
58768;SDS011;44536;47.474;19.056;2024-03-02T00:50:25;24.42;;;13.82;;
58768;SDS011;44536;47.474;19.056;2024-03-02T00:53:32;25.70;;;15.45;;
58768;SDS011;44536;47.474;19.056;2024-03-02T00:56:34;25.58;;;14.70;;
58768;SDS011;44536;47.474;19.056;2024-03-02T00:59:37;22.93;;;14.53;;
58768;SDS011;44536;47.474;19.056;2024-03-02T01:02:39;25.02;;;13.85;;
58768;SDS011;44536;47.474;19.056;2024-03-02T01:05:44;30.23;;;15.35;;
58768;SDS011;44536;47.474;19.056;2024-03-02T01:08:46;26.48;;;15.75;;
58768;SDS011;44536;47.474;19.056;2024-03-02T01:11:53;26.25;;;14.77;;
58768;SDS011;44536;47.474;19.056;2024-03-02T01:14:55;25.27;;;14.50;;
58768;SDS011;44536;47.474;19.056;2024-03-02T01:17:57;26.02;;;16.20;;
58768;SDS011;44536;47.474;19.056;2024-03-02T01:20:59;23.73;;;15.43;;
58768;SDS011;44536;47.474;19.056;2024-03-02T01:24:02;22.75;;;13.10;;
58768;SDS011;44536;47.474;19.056;2024-03-02T01:27:04;20.50;;;12.32;;
58768;SDS011;44536;47.474;19.056;2024-03-02T01:30:06;20.33;;;13.75;;
58768;SDS011;44536;47.474;19.056;2024-03-02T01:33:08;22.33;;;14.50;;
58768;SDS011;44536;47.474;19.056;2024-03-02T01:36:10;23.87;;;14.50;;
58768;SDS011;44536;47.474;19.056;2024-03-02T01:39:12;29.27;;;15.77;;
58768;SDS011;44536;47.474;19.056;2024-03-02T01:42:14;21.45;;;13.57;;
58768;SDS011;44536;47.474;19.056;2024-03-02T01:45:16;25.42;;;12.85;;
58768;SDS011;44536;47.474;19.056;2024-03-02T01:48:18;25.17;;;13.18;;
58768;SDS011;44536;47.474;19.056;2024-03-02T01:51:21;24.10;;;13.43;;
58768;SDS011;44536;47.474;19.056;2024-03-02T01:54:23;21.15;;;12.25;;
58768;SDS011;44536;47.474;19.056;2024-03-02T01:57:25;22.20;;;12.68;;
58768;SDS011;44536;47.474;19.056;2024-03-02T02:00:27;23.08;;;13.15;;
58768;SDS011;44536;47.474;19.056;2024-03-02T02:03:30;24.27;;;12.52;;
58768;SDS011;44536;47.474;19.056;2024-03-02T02:06:32;26.62;;;14.87;;
58768;SDS011;44536;47.474;19.056;2024-03-02T02:09:34;26.67;;;13.20;;
58768;SDS011;44536;47.474;19.056;2024-03-02T02:12:36;20.85;;;11.70;;
58768;SDS011;44536;47.474;19.056;2024-03-02T02:15:38;23.62;;;15.20;;
58768;SDS011;44536;47.474;19.056;2024-03-02T02:18:40;18.55;;;12.27;;
58768;SDS011;44536;47.474;19.056;2024-03-02T02:21:43;23.40;;;11.57;;
58768;SDS011;44536;47.474;19.056;2024-03-02T02:24:45;22.42;;;13.00;;
58768;SDS011;44536;47.474;19.056;2024-03-02T02:27:47;25.05;;;13.30;;
58768;SDS011;44536;47.474;19.056;2024-03-02T02:30:50;25.73;;;12.60;;
58768;SDS011;44536;47.474;19.056;2024-03-02T02:33:52;23.05;;;14.32;;
58768;SDS011;44536;47.474;19.056;2024-03-02T02:36:54;20.27;;;11.93;;
58768;SDS011;44536;47.474;19.056;2024-03-02T02:39:56;23.70;;;13.05;;
58768;SDS011;44536;47.474;19.056;2024-03-02T02:42:58;23.05;;;13.90;;
58768;SDS011;44536;47.474;19.056;2024-03-02T02:46:01;28.30;;;15.93;;
58768;SDS011;44536;47.474;19.056;2024-03-02T02:49:03;18.92;;;12.00;;
58768;SDS011;44536;47.474;19.056;2024-03-02T02:52:05;19.70;;;12.05;;
58768;SDS011;44536;47.474;19.056;2024-03-02T02:55:10;20.73;;;12.32;;
58768;SDS011;44536;47.474;19.056;2024-03-02T02:58:13;19.65;;;12.23;;
58768;SDS011;44536;47.474;19.056;2024-03-02T03:01:16;20.83;;;13.55;;
58768;SDS011;44536;47.474;19.056;2024-03-02T03:04:21;20.02;;;13.23;;
58768;SDS011;44536;47.474;19.056;2024-03-02T03:07:23;21.62;;;11.77;;
58768;SDS011;44536;47.474;19.056;2024-03-02T03:10:25;17.98;;;11.18;;
58768;SDS011;44536;47.474;19.056;2024-03-02T03:13:29;19.37;;;11.95;;
58768;SDS011;44536;47.474;19.056;2024-03-02T03:16:31;18.92;;;11.00;;
58768;SDS011;44536;47.474;19.056;2024-03-02T03:19:33;18.25;;;11.52;;
58768;SDS011;44536;47.474;19.056;2024-03-02T03:22:36;18.42;;;11.50;;
58768;SDS011;44536;47.474;19.056;2024-03-02T03:25:38;17.80;;;10.88;;
58768;SDS011;44536;47.474;19.056;2024-03-02T03:28:40;16.58;;;10.57;;
58768;SDS011;44536;47.474;19.056;2024-03-02T03:31:42;18.85;;;9.43;;
58768;SDS011;44536;47.474;19.056;2024-03-02T03:34:44;20.10;;;12.77;;
58768;SDS011;44536;47.474;19.056;2024-03-02T03:37:46;19.05;;;11.65;;
58768;SDS011;44536;47.474;19.056;2024-03-02T03:40:48;18.20;;;10.38;;
58768;SDS011;44536;47.474;19.056;2024-03-02T03:43:50;15.07;;;11.20;;
58768;SDS011;44536;47.474;19.056;2024-03-02T03:46:52;19.52;;;11.30;;
58768;SDS011;44536;47.474;19.056;2024-03-02T03:49:54;24.60;;;13.43;;
58768;SDS011;44536;47.474;19.056;2024-03-02T03:52:56;22.35;;;14.57;;
58768;SDS011;44536;47.474;19.056;2024-03-02T03:55:58;21.87;;;11.27;;
58768;SDS011;44536;47.474;19.056;2024-03-02T03:59:00;23.42;;;12.00;;
58768;SDS011;44536;47.474;19.056;2024-03-02T04:02:03;19.52;;;10.73;;
58768;SDS011;44536;47.474;19.056;2024-03-02T04:05:05;26.83;;;13.75;;
58768;SDS011;44536;47.474;19.056;2024-03-02T04:08:10;18.30;;;9.73;;
58768;SDS011;44536;47.474;19.056;2024-03-02T04:11:13;18.90;;;9.90;;
58768;SDS011;44536;47.474;19.056;2024-03-02T04:14:15;22.27;;;12.20;;
58768;SDS011;44536;47.474;19.056;2024-03-02T04:17:18;19.10;;;12.88;;
58768;SDS011;44536;47.474;19.056;2024-03-02T04:20:19;15.82;;;9.35;;
58768;SDS011;44536;47.474;19.056;2024-03-02T04:23:22;17.10;;;9.73;;
58768;SDS011;44536;47.474;19.056;2024-03-02T04:26:24;23.38;;;10.45;;
58768;SDS011;44536;47.474;19.056;2024-03-02T04:29:27;18.02;;;9.93;;
58768;SDS011;44536;47.474;19.056;2024-03-02T04:32:29;23.15;;;10.43;;
58768;SDS011;44536;47.474;19.056;2024-03-02T04:35:31;16.37;;;9.10;;
58768;SDS011;44536;47.474;19.056;2024-03-02T04:38:33;18.52;;;10.70;;
58768;SDS011;44536;47.474;19.056;2024-03-02T04:41:35;19.70;;;12.07;;
58768;SDS011;44536;47.474;19.056;2024-03-02T04:44:37;24.73;;;14.30;;
58768;SDS011;44536;47.474;19.056;2024-03-02T04:47:40;18.95;;;10.25;;
58768;SDS011;44536;47.474;19.056;2024-03-02T04:50:42;22.30;;;11.80;;
58768;SDS011;44536;47.474;19.056;2024-03-02T04:53:44;17.40;;;11.68;;
58768;SDS011;44536;47.474;19.056;2024-03-02T04:56:46;15.07;;;11.95;;
58768;SDS011;44536;47.474;19.056;2024-03-02T04:59:52;26.08;;;10.38;;
58768;SDS011;44536;47.474;19.056;2024-03-02T05:02:54;16.83;;;10.00;;
58768;SDS011;44536;47.474;19.056;2024-03-02T05:05:56;20.48;;;11.12;;
58768;SDS011;44536;47.474;19.056;2024-03-02T05:08:58;20.42;;;10.25;;
58768;SDS011;44536;47.474;19.056;2024-03-02T05:12:00;18.77;;;10.55;;
58768;SDS011;44536;47.474;19.056;2024-03-02T05:15:30;19.92;;;12.32;;
58768;SDS011;44536;47.474;19.056;2024-03-02T05:18:33;19.08;;;11.63;;
58768;SDS011;44536;47.474;19.056;2024-03-02T05:21:35;27.40;;;15.75;;
58768;SDS011;44536;47.474;19.056;2024-03-02T05:24:37;19.20;;;11.82;;
58768;SDS011;44536;47.474;19.056;2024-03-02T05:27:39;22.02;;;11.82;;
58768;SDS011;44536;47.474;19.056;2024-03-02T05:30:42;17.65;;;11.38;;
58768;SDS011;44536;47.474;19.056;2024-03-02T05:33:44;24.63;;;12.85;;
58768;SDS011;44536;47.474;19.056;2024-03-02T05:36:47;17.95;;;9.57;;
58768;SDS011;44536;47.474;19.056;2024-03-02T05:39:48;25.50;;;14.48;;
58768;SDS011;44536;47.474;19.056;2024-03-02T05:42:51;19.37;;;10.82;;
58768;SDS011;44536;47.474;19.056;2024-03-02T05:45:53;27.58;;;14.65;;
58768;SDS011;44536;47.474;19.056;2024-03-02T05:48:55;21.33;;;13.95;;
58768;SDS011;44536;47.474;19.056;2024-03-02T05:51:57;23.20;;;13.23;;
58768;SDS011;44536;47.474;19.056;2024-03-02T05:54:59;22.08;;;13.25;;
58768;SDS011;44536;47.474;19.056;2024-03-02T05:58:01;28.25;;;15.02;;
58768;SDS011;44536;47.474;19.056;2024-03-02T06:01:22;21.48;;;12.13;;
58768;SDS011;44536;47.474;19.056;2024-03-02T06:04:30;24.00;;;14.90;;
58768;SDS011;44536;47.474;19.056;2024-03-02T06:07:32;20.05;;;12.82;;
58768;SDS011;44536;47.474;19.056;2024-03-02T06:10:34;25.42;;;11.57;;
58768;SDS011;44536;47.474;19.056;2024-03-02T06:13:36;29.90;;;14.07;;
58768;SDS011;44536;47.474;19.056;2024-03-02T06:16:38;23.62;;;11.70;;
58768;SDS011;44536;47.474;19.056;2024-03-02T06:19:40;19.25;;;12.48;;
58768;SDS011;44536;47.474;19.056;2024-03-02T06:22:42;18.50;;;9.30;;
58768;SDS011;44536;47.474;19.056;2024-03-02T06:25:44;17.37;;;8.75;;
58768;SDS011;44536;47.474;19.056;2024-03-02T06:28:46;25.27;;;12.50;;
58768;SDS011;44536;47.474;19.056;2024-03-02T06:31:48;27.87;;;12.25;;
58768;SDS011;44536;47.474;19.056;2024-03-02T06:34:54;15.00;;;10.68;;
58768;SDS011;44536;47.474;19.056;2024-03-02T06:37:56;23.60;;;15.52;;
58768;SDS011;44536;47.474;19.056;2024-03-02T06:40:59;25.83;;;13.10;;
58768;SDS011;44536;47.474;19.056;2024-03-02T06:44:00;22.10;;;11.95;;
58768;SDS011;44536;47.474;19.056;2024-03-02T06:47:03;22.33;;;10.95;;
58768;SDS011;44536;47.474;19.056;2024-03-02T06:50:06;19.00;;;12.70;;
58768;SDS011;44536;47.474;19.056;2024-03-02T06:53:09;17.87;;;12.27;;
58768;SDS011;44536;47.474;19.056;2024-03-02T06:56:11;26.77;;;14.52;;
58768;SDS011;44536;47.474;19.056;2024-03-02T06:59:13;24.42;;;13.85;;
58768;SDS011;44536;47.474;19.056;2024-03-02T07:02:15;24.37;;;12.52;;
58768;SDS011;44536;47.474;19.056;2024-03-02T07:05:17;26.10;;;13.77;;
58768;SDS011;44536;47.474;19.056;2024-03-02T07:08:19;24.67;;;14.65;;
58768;SDS011;44536;47.474;19.056;2024-03-02T07:11:21;19.67;;;13.18;;
58768;SDS011;44536;47.474;19.056;2024-03-02T07:14:23;22.45;;;12.73;;
58768;SDS011;44536;47.474;19.056;2024-03-02T07:17:45;17.15;;;9.98;;
58768;SDS011;44536;47.474;19.056;2024-03-02T07:20:47;22.20;;;10.15;;
58768;SDS011;44536;47.474;19.056;2024-03-02T07:23:51;18.42;;;10.90;;
58768;SDS011;44536;47.474;19.056;2024-03-02T07:26:53;33.58;;;14.32;;
58768;SDS011;44536;47.474;19.056;2024-03-02T07:29:56;22.23;;;12.37;;
58768;SDS011;44536;47.474;19.056;2024-03-02T07:32:58;18.75;;;10.75;;
58768;SDS011;44536;47.474;19.056;2024-03-02T07:36:00;14.07;;;10.00;;
58768;SDS011;44536;47.474;19.056;2024-03-02T07:39:05;20.95;;;11.50;;
58768;SDS011;44536;47.474;19.056;2024-03-02T07:45:11;22.17;;;14.35;;
58768;SDS011;44536;47.474;19.056;2024-03-02T07:48:13;25.12;;;13.13;;
58768;SDS011;44536;47.474;19.056;2024-03-02T07:51:15;23.87;;;13.77;;
58768;SDS011;44536;47.474;19.056;2024-03-02T07:54:18;21.33;;;11.05;;
58768;SDS011;44536;47.474;19.056;2024-03-02T07:57:21;20.02;;;12.15;;
58768;SDS011;44536;47.474;19.056;2024-03-02T08:00:23;19.50;;;13.05;;
58768;SDS011;44536;47.474;19.056;2024-03-02T08:03:25;22.33;;;12.82;;
58768;SDS011;44536;47.474;19.056;2024-03-02T08:06:27;18.33;;;12.23;;
58768;SDS011;44536;47.474;19.056;2024-03-02T08:09:30;26.50;;;15.93;;
58768;SDS011;44536;47.474;19.056;2024-03-02T08:12:32;17.45;;;10.45;;
58768;SDS011;44536;47.474;19.056;2024-03-02T08:15:34;21.00;;;11.25;;
58768;SDS011;44536;47.474;19.056;2024-03-02T08:18:36;17.80;;;11.93;;
58768;SDS011;44536;47.474;19.056;2024-03-02T08:21:38;15.93;;;9.43;;
58768;SDS011;44536;47.474;19.056;2024-03-02T08:24:40;21.67;;;11.43;;
58768;SDS011;44536;47.474;19.056;2024-03-02T08:27:42;21.37;;;11.57;;
58768;SDS011;44536;47.474;19.056;2024-03-02T08:30:44;17.37;;;10.63;;
58768;SDS011;44536;47.474;19.056;2024-03-02T08:33:47;17.90;;;10.45;;
58768;SDS011;44536;47.474;19.056;2024-03-02T08:36:49;23.48;;;13.38;;
58768;SDS011;44536;47.474;19.056;2024-03-02T08:39:51;22.45;;;10.52;;
58768;SDS011;44536;47.474;19.056;2024-03-02T08:42:53;23.77;;;15.25;;
58768;SDS011;44536;47.474;19.056;2024-03-02T08:45:55;25.20;;;14.05;;
58768;SDS011;44536;47.474;19.056;2024-03-02T08:48:57;21.35;;;10.40;;
58768;SDS011;44536;47.474;19.056;2024-03-02T08:52:00;21.73;;;12.37;;
58768;SDS011;44536;47.474;19.056;2024-03-02T08:55:02;30.23;;;13.38;;
58768;SDS011;44536;47.474;19.056;2024-03-02T08:58:04;21.42;;;12.55;;
58768;SDS011;44536;47.474;19.056;2024-03-02T09:01:06;19.33;;;11.10;;
58768;SDS011;44536;47.474;19.056;2024-03-02T09:04:10;15.70;;;9.50;;
58768;SDS011;44536;47.474;19.056;2024-03-02T09:07:12;20.70;;;12.00;;
58768;SDS011;44536;47.474;19.056;2024-03-02T09:10:14;20.90;;;10.43;;
58768;SDS011;44536;47.474;19.056;2024-03-02T09:13:16;18.52;;;10.50;;
58768;SDS011;44536;47.474;19.056;2024-03-02T09:16:19;19.37;;;13.40;;
58768;SDS011;44536;47.474;19.056;2024-03-02T09:19:21;22.98;;;11.43;;
58768;SDS011;44536;47.474;19.056;2024-03-02T09:22:23;24.48;;;13.23;;
58768;SDS011;44536;47.474;19.056;2024-03-02T09:25:25;14.35;;;9.15;;
58768;SDS011;44536;47.474;19.056;2024-03-02T09:28:27;19.58;;;11.18;;
58768;SDS011;44536;47.474;19.056;2024-03-02T09:31:29;22.10;;;11.00;;
58768;SDS011;44536;47.474;19.056;2024-03-02T09:34:31;16.75;;;7.82;;
58768;SDS011;44536;47.474;19.056;2024-03-02T09:37:33;16.87;;;8.90;;
58768;SDS011;44536;47.474;19.056;2024-03-02T09:40:36;16.23;;;8.68;;
58768;SDS011;44536;47.474;19.056;2024-03-02T09:43:38;18.80;;;10.40;;
58768;SDS011;44536;47.474;19.056;2024-03-02T09:46:40;19.40;;;10.48;;
58768;SDS011;44536;47.474;19.056;2024-03-02T09:49:45;13.77;;;9.55;;
58768;SDS011;44536;47.474;19.056;2024-03-02T09:52:48;18.92;;;11.50;;
58768;SDS011;44536;47.474;19.056;2024-03-02T09:55:50;14.52;;;10.25;;
58768;SDS011;44536;47.474;19.056;2024-03-02T09:58:52;15.73;;;9.52;;
58768;SDS011;44536;47.474;19.056;2024-03-02T10:05:00;15.95;;;8.93;;
58768;SDS011;44536;47.474;19.056;2024-03-02T10:08:02;16.83;;;10.88;;
58768;SDS011;44536;47.474;19.056;2024-03-02T10:11:05;13.33;;;7.67;;
58768;SDS011;44536;47.474;19.056;2024-03-02T10:14:07;10.02;;;6.22;;
58768;SDS011;44536;47.474;19.056;2024-03-02T10:17:11;20.75;;;9.98;;
58768;SDS011;44536;47.474;19.056;2024-03-02T10:20:26;15.20;;;10.30;;
58768;SDS011;44536;47.474;19.056;2024-03-02T10:23:31;8.13;;;6.28;;
58768;SDS011;44536;47.474;19.056;2024-03-02T10:26:33;12.15;;;7.72;;
58768;SDS011;44536;47.474;19.056;2024-03-02T10:29:36;13.60;;;8.25;;
58768;SDS011;44536;47.474;19.056;2024-03-02T10:32:38;17.47;;;8.40;;
58768;SDS011;44536;47.474;19.056;2024-03-02T10:35:40;22.73;;;11.23;;
58768;SDS011;44536;47.474;19.056;2024-03-02T10:38:42;18.60;;;9.27;;
58768;SDS011;44536;47.474;19.056;2024-03-02T10:41:45;16.12;;;8.93;;
58768;SDS011;44536;47.474;19.056;2024-03-02T10:44:47;13.45;;;8.57;;
58768;SDS011;44536;47.474;19.056;2024-03-02T10:47:50;18.45;;;8.48;;
58768;SDS011;44536;47.474;19.056;2024-03-02T10:50:52;14.10;;;8.68;;
58768;SDS011;44536;47.474;19.056;2024-03-02T10:53:55;12.50;;;8.13;;
58768;SDS011;44536;47.474;19.056;2024-03-02T10:56:58;15.38;;;7.07;;
58768;SDS011;44536;47.474;19.056;2024-03-02T11:00:02;12.68;;;8.57;;
58768;SDS011;44536;47.474;19.056;2024-03-02T11:03:04;17.70;;;9.50;;
58768;SDS011;44536;47.474;19.056;2024-03-02T11:06:13;14.75;;;9.23;;
58768;SDS011;44536;47.474;19.056;2024-03-02T11:09:16;13.50;;;7.68;;
58768;SDS011;44536;47.474;19.056;2024-03-02T11:12:28;13.73;;;7.40;;
58768;SDS011;44536;47.474;19.056;2024-03-02T11:15:30;18.73;;;9.20;;
58768;SDS011;44536;47.474;19.056;2024-03-02T11:18:33;14.65;;;8.38;;
58768;SDS011;44536;47.474;19.056;2024-03-02T11:21:36;18.20;;;9.13;;
58768;SDS011;44536;47.474;19.056;2024-03-02T11:24:38;21.48;;;7.80;;
58768;SDS011;44536;47.474;19.056;2024-03-02T11:30:49;13.05;;;6.93;;
58768;SDS011;44536;47.474;19.056;2024-03-02T11:33:51;12.88;;;6.25;;
58768;SDS011;44536;47.474;19.056;2024-03-02T11:36:54;10.15;;;7.07;;
58768;SDS011;44536;47.474;19.056;2024-03-02T11:39:56;14.73;;;7.12;;
58768;SDS011;44536;47.474;19.056;2024-03-02T11:43:02;16.35;;;7.68;;
58768;SDS011;44536;47.474;19.056;2024-03-02T11:46:04;14.15;;;8.00;;
58768;SDS011;44536;47.474;19.056;2024-03-02T11:49:09;12.23;;;6.40;;
58768;SDS011;44536;47.474;19.056;2024-03-02T11:52:15;10.43;;;6.78;;
58768;SDS011;44536;47.474;19.056;2024-03-02T11:55:18;14.82;;;7.25;;
58768;SDS011;44536;47.474;19.056;2024-03-02T11:58:21;12.50;;;5.20;;
58768;SDS011;44536;47.474;19.056;2024-03-02T12:01:26;15.27;;;8.43;;
58768;SDS011;44536;47.474;19.056;2024-03-02T12:04:29;13.95;;;6.93;;
58768;SDS011;44536;47.474;19.056;2024-03-02T12:07:31;16.20;;;8.20;;
58768;SDS011;44536;47.474;19.056;2024-03-02T12:10:34;15.05;;;8.23;;
58768;SDS011;44536;47.474;19.056;2024-03-02T12:13:36;15.85;;;9.57;;
58768;SDS011;44536;47.474;19.056;2024-03-02T12:16:38;11.80;;;7.70;;
58768;SDS011;44536;47.474;19.056;2024-03-02T12:19:41;11.07;;;8.30;;
58768;SDS011;44536;47.474;19.056;2024-03-02T12:22:43;11.60;;;6.20;;
58768;SDS011;44536;47.474;19.056;2024-03-02T12:25:46;10.90;;;5.25;;
58768;SDS011;44536;47.474;19.056;2024-03-02T12:28:48;17.80;;;8.95;;
58768;SDS011;44536;47.474;19.056;2024-03-02T12:31:51;13.18;;;6.87;;
58768;SDS011;44536;47.474;19.056;2024-03-02T12:34:54;13.82;;;7.20;;
58768;SDS011;44536;47.474;19.056;2024-03-02T12:37:56;10.25;;;7.10;;
58768;SDS011;44536;47.474;19.056;2024-03-02T12:40:58;10.85;;;5.82;;
58768;SDS011;44536;47.474;19.056;2024-03-02T12:44:00;10.77;;;4.87;;
58768;SDS011;44536;47.474;19.056;2024-03-02T12:47:03;12.95;;;7.43;;
58768;SDS011;44536;47.474;19.056;2024-03-02T12:50:05;14.25;;;7.28;;
58768;SDS011;44536;47.474;19.056;2024-03-02T12:53:07;15.77;;;8.38;;
58768;SDS011;44536;47.474;19.056;2024-03-02T12:56:10;14.90;;;8.03;;
58768;SDS011;44536;47.474;19.056;2024-03-02T12:59:19;12.70;;;7.90;;
58768;SDS011;44536;47.474;19.056;2024-03-02T13:02:22;14.32;;;7.18;;
58768;SDS011;44536;47.474;19.056;2024-03-02T13:05:24;15.45;;;7.68;;
58768;SDS011;44536;47.474;19.056;2024-03-02T13:08:27;14.63;;;8.43;;
58768;SDS011;44536;47.474;19.056;2024-03-02T13:11:30;12.57;;;8.07;;
58768;SDS011;44536;47.474;19.056;2024-03-02T13:14:32;14.25;;;9.30;;
58768;SDS011;44536;47.474;19.056;2024-03-02T13:17:35;19.60;;;6.40;;
58768;SDS011;44536;47.474;19.056;2024-03-02T13:20:39;14.80;;;7.43;;
58768;SDS011;44536;47.474;19.056;2024-03-02T13:23:42;16.40;;;8.73;;
58768;SDS011;44536;47.474;19.056;2024-03-02T13:26:43;15.02;;;7.12;;
58768;SDS011;44536;47.474;19.056;2024-03-02T13:29:46;14.20;;;6.93;;
58768;SDS011;44536;47.474;19.056;2024-03-02T13:32:49;11.77;;;7.15;;
58768;SDS011;44536;47.474;19.056;2024-03-02T13:35:51;18.65;;;7.80;;
58768;SDS011;44536;47.474;19.056;2024-03-02T13:38:53;11.00;;;5.20;;
58768;SDS011;44536;47.474;19.056;2024-03-02T13:41:56;13.88;;;7.32;;
58768;SDS011;44536;47.474;19.056;2024-03-02T13:45:04;10.70;;;6.80;;
58768;SDS011;44536;47.474;19.056;2024-03-02T13:48:07;14.38;;;6.32;;
58768;SDS011;44536;47.474;19.056;2024-03-02T13:51:09;18.25;;;8.98;;
58768;SDS011;44536;47.474;19.056;2024-03-02T13:54:12;13.45;;;7.43;;
58768;SDS011;44536;47.474;19.056;2024-03-02T13:57:14;13.93;;;6.85;;
58768;SDS011;44536;47.474;19.056;2024-03-02T14:00:16;14.60;;;7.95;;
58768;SDS011;44536;47.474;19.056;2024-03-02T14:03:19;11.70;;;5.40;;
58768;SDS011;44536;47.474;19.056;2024-03-02T14:06:24;10.57;;;5.65;;
58768;SDS011;44536;47.474;19.056;2024-03-02T14:09:29;12.55;;;6.62;;
58768;SDS011;44536;47.474;19.056;2024-03-02T14:12:31;15.98;;;6.43;;
58768;SDS011;44536;47.474;19.056;2024-03-02T14:15:33;13.05;;;6.65;;
58768;SDS011;44536;47.474;19.056;2024-03-02T14:18:35;13.02;;;6.25;;
58768;SDS011;44536;47.474;19.056;2024-03-02T14:21:38;12.10;;;7.22;;
58768;SDS011;44536;47.474;19.056;2024-03-02T14:24:40;10.45;;;5.75;;
58768;SDS011;44536;47.474;19.056;2024-03-02T14:27:42;16.40;;;7.40;;
58768;SDS011;44536;47.474;19.056;2024-03-02T14:31:04;13.77;;;8.45;;
58768;SDS011;44536;47.474;19.056;2024-03-02T14:34:07;13.20;;;7.00;;
58768;SDS011;44536;47.474;19.056;2024-03-02T14:37:09;14.80;;;7.22;;
58768;SDS011;44536;47.474;19.056;2024-03-02T14:40:11;11.82;;;7.28;;
58768;SDS011;44536;47.474;19.056;2024-03-02T14:43:14;12.07;;;8.70;;
58768;SDS011;44536;47.474;19.056;2024-03-02T14:46:16;12.73;;;7.30;;
58768;SDS011;44536;47.474;19.056;2024-03-02T14:49:18;16.77;;;9.23;;
58768;SDS011;44536;47.474;19.056;2024-03-02T14:52:21;13.77;;;8.45;;
58768;SDS011;44536;47.474;19.056;2024-03-02T14:55:23;19.20;;;10.40;;
58768;SDS011;44536;47.474;19.056;2024-03-02T14:58:25;16.53;;;10.53;;
58768;SDS011;44536;47.474;19.056;2024-03-02T15:01:28;23.47;;;11.67;;
58768;SDS011;44536;47.474;19.056;2024-03-02T15:04:30;19.58;;;9.57;;
58768;SDS011;44536;47.474;19.056;2024-03-02T15:07:32;24.40;;;11.32;;
58768;SDS011;44536;47.474;19.056;2024-03-02T15:10:34;21.92;;;10.15;;
58768;SDS011;44536;47.474;19.056;2024-03-02T15:13:37;23.42;;;9.82;;
58768;SDS011;44536;47.474;19.056;2024-03-02T15:16:39;22.15;;;9.00;;
58768;SDS011;44536;47.474;19.056;2024-03-02T15:19:42;17.52;;;11.65;;
58768;SDS011;44536;47.474;19.056;2024-03-02T15:22:44;19.62;;;9.15;;
58768;SDS011;44536;47.474;19.056;2024-03-02T15:25:46;20.62;;;11.50;;
58768;SDS011;44536;47.474;19.056;2024-03-02T15:28:48;28.42;;;12.80;;
58768;SDS011;44536;47.474;19.056;2024-03-02T15:31:50;22.52;;;11.90;;
58768;SDS011;44536;47.474;19.056;2024-03-02T15:34:54;19.62;;;8.77;;
58768;SDS011;44536;47.474;19.056;2024-03-02T15:37:56;24.35;;;10.85;;
58768;SDS011;44536;47.474;19.056;2024-03-02T15:40:58;22.10;;;10.35;;
58768;SDS011;44536;47.474;19.056;2024-03-02T15:44:00;21.37;;;11.77;;
58768;SDS011;44536;47.474;19.056;2024-03-02T15:47:03;22.27;;;9.13;;
58768;SDS011;44536;47.474;19.056;2024-03-02T15:50:05;23.83;;;12.32;;
58768;SDS011;44536;47.474;19.056;2024-03-02T15:53:07;24.73;;;12.77;;
58768;SDS011;44536;47.474;19.056;2024-03-02T15:56:10;25.70;;;13.05;;
58768;SDS011;44536;47.474;19.056;2024-03-02T15:59:12;22.35;;;12.32;;
58768;SDS011;44536;47.474;19.056;2024-03-02T16:02:14;23.75;;;13.00;;
58768;SDS011;44536;47.474;19.056;2024-03-02T16:05:16;38.10;;;15.10;;
58768;SDS011;44536;47.474;19.056;2024-03-02T16:08:18;23.48;;;12.40;;
58768;SDS011;44536;47.474;19.056;2024-03-02T16:11:21;29.20;;;13.73;;
58768;SDS011;44536;47.474;19.056;2024-03-02T16:14:23;30.25;;;13.40;;
58768;SDS011;44536;47.474;19.056;2024-03-02T16:17:25;29.60;;;13.27;;
58768;SDS011;44536;47.474;19.056;2024-03-02T16:20:27;26.05;;;14.27;;
58768;SDS011;44536;47.474;19.056;2024-03-02T16:23:29;21.77;;;11.12;;
58768;SDS011;44536;47.474;19.056;2024-03-02T16:26:31;22.62;;;11.63;;
58768;SDS011;44536;47.474;19.056;2024-03-02T16:29:33;24.98;;;13.02;;
58768;SDS011;44536;47.474;19.056;2024-03-02T16:32:35;25.52;;;12.00;;
58768;SDS011;44536;47.474;19.056;2024-03-02T16:35:37;29.42;;;13.68;;
58768;SDS011;44536;47.474;19.056;2024-03-02T16:38:39;24.60;;;11.75;;
58768;SDS011;44536;47.474;19.056;2024-03-02T16:41:42;25.33;;;11.57;;
58768;SDS011;44536;47.474;19.056;2024-03-02T16:44:48;27.70;;;13.02;;
58768;SDS011;44536;47.474;19.056;2024-03-02T16:47:53;29.80;;;11.18;;
58768;SDS011;44536;47.474;19.056;2024-03-02T16:50:55;22.40;;;11.18;;
58768;SDS011;44536;47.474;19.056;2024-03-02T16:53:59;15.95;;;10.13;;
58768;SDS011;44536;47.474;19.056;2024-03-02T16:57:01;19.77;;;9.57;;
58768;SDS011;44536;47.474;19.056;2024-03-02T17:00:03;18.40;;;10.80;;
58768;SDS011;44536;47.474;19.056;2024-03-02T17:03:05;18.77;;;11.48;;
58768;SDS011;44536;47.474;19.056;2024-03-02T17:06:07;23.20;;;9.82;;
58768;SDS011;44536;47.474;19.056;2024-03-02T17:09:09;22.15;;;11.32;;
58768;SDS011;44536;47.474;19.056;2024-03-02T17:12:11;17.77;;;11.70;;
58768;SDS011;44536;47.474;19.056;2024-03-02T17:15:13;24.52;;;10.55;;
58768;SDS011;44536;47.474;19.056;2024-03-02T17:18:15;17.55;;;12.43;;
58768;SDS011;44536;47.474;19.056;2024-03-02T17:21:17;16.02;;;10.40;;
58768;SDS011;44536;47.474;19.056;2024-03-02T17:24:20;16.95;;;10.25;;
58768;SDS011;44536;47.474;19.056;2024-03-02T17:27:22;20.10;;;11.90;;
58768;SDS011;44536;47.474;19.056;2024-03-02T17:30:24;16.58;;;10.05;;
58768;SDS011;44536;47.474;19.056;2024-03-02T17:33:26;22.70;;;11.75;;
58768;SDS011;44536;47.474;19.056;2024-03-02T17:36:28;21.12;;;11.15;;
58768;SDS011;44536;47.474;19.056;2024-03-02T17:39:30;20.52;;;10.88;;
58768;SDS011;44536;47.474;19.056;2024-03-02T17:42:32;16.73;;;10.32;;
58768;SDS011;44536;47.474;19.056;2024-03-02T17:45:34;21.65;;;10.02;;
58768;SDS011;44536;47.474;19.056;2024-03-02T17:48:37;20.58;;;11.30;;